Leavenworth, WA (98826)

12:17 PM PDT on October 21, 2014 (GMT -0700)
Mountain Home Lodge Leavenworth, WA | Change Station
CLOSE
Current Station
Personal Weather Station
Location: Leavenworth, WA
Elevation: 2044 ft
Nearby Weather Stations

Elev 2044 ft 47.57 °N, 120.65 °W | Updated 2 minutes ago

Mostly Cloudy
Mostly Cloudy
52.5 °F
Feels Like 52.5 °F
N
0.0
Wind Variable Wind from WSW
Gusts 2.0 mph

Today
High -- | Low -- °F
--% Chance of Precip.
Yesterday
High -- | Low -- °F
Precip. -- in
7:30 AM 6:03 PM
Waning Crescent, 4% visible
Pressure 29.90 in
Visibility 10.0 miles
Clouds Clear
Dew Point 47 °F
Humidity 82%
Rainfall 0.00 in
Snow Depth 0 in
UV 3 out of 12
Pollen 1.40 out of 12
Air Quality Not available.
Flu Activity Sporadic
METAR KEAT 211855Z AUTO 23003KT 10SM CLR 13/08 A2990 RMK AO2 SLP123 T01330083

More Conditions Fewer Conditions

Pressure 29.90 in
Visibility 10.0 miles
Clouds Clear
Dew Point 47 °F
Humidity 82%
Rainfall 0.00 in
Snow Depth 0 in
UV 3 out of 12
Pollen 1.40 out of 12
Air Quality Not available.
Flu Activity Sporadic
METAR KEAT 211855Z AUTO 23003KT 10SM CLR 13/08 A2990 RMK AO2 SLP123 T01330083

More Conditions Fewer Conditions

10-Day Weather Forecast

Almanac

Astronomy

Oct. 21, 2014 Rise Set
Actual Time 7:30 AM PDT 6:03 PM PDT
Civil Twilight 6:58 AM PDT 6:34 PM PDT
Nautical Twilight 6:23 AM PDT 7:10 PM PDT
Astronomical Twilight 5:47 AM PDT 7:46 PM PDT
Moon 5:10 AM PDT 5:07 PM PDT
Length of Visible Light 11h 35m
Length of Day
10h 33m
Tomorrow will be 3m 16s shorter.
Waning Crescent, 4% of the Moon is Illuminated
Today
Waning Crescent
Oct 23
New
Oct 30
First Quarter
Nov 6
Full
Nov 14
Last Quarter

Today's Extremes

State Highs State Lows

Community

WunderPhotos

Upload Photos

1,763,746 photos uploaded!

Nearby

Snow Depth

Station Depth Elevation
Blewett Pass 0 in 4270 ft
Stevens Pass 0 in 4070 ft
Sasse Ridge 0 in 4200 ft
Grouse Camp 0 in 5380 ft
Pope Ridge 1 in 3540 ft

Earthquake Activity

City Distance Mag. Time & Date
No recent earthquake activity has been reported nearby.
Minimum magnitude displayed is 2.5.

Coastal Water Temperatures

Place Temperature
No Stations Reporting

Nearby Weather Stations